sensor_id;sensor_type;location;lat;lon;timestamp;temperature;humidity
16321;DHT22;8269;50.990;4.494;2022-07-01T00:02:07;12.90;99.90
16321;DHT22;8269;50.990;4.494;2022-07-01T00:04:33;12.80;99.90
16321;DHT22;8269;50.990;4.494;2022-07-01T00:06:59;12.80;99.90
16321;DHT22;8269;50.990;4.494;2022-07-01T00:09:24;12.90;99.90
16321;DHT22;8269;50.990;4.494;2022-07-01T00:11:50;12.80;99.90
16321;DHT22;8269;50.990;4.494;2022-07-01T00:14:16;12.80;99.90
16321;DHT22;8269;50.990;4.494;2022-07-01T00:16:42;12.80;99.90
16321;DHT22;8269;50.990;4.494;2022-07-01T00:19:08;12.90;99.90
16321;DHT22;8269;50.990;4.494;2022-07-01T00:21:34;12.80;99.90
16321;DHT22;8269;50.990;4.494;2022-07-01T00:24:00;12.80;99.90
16321;DHT22;8269;50.990;4.494;2022-07-01T00:26:25;12.80;99.90
16321;DHT22;8269;50.990;4.494;2022-07-01T00:28:51;12.80;99.90
16321;DHT22;8269;50.990;4.494;2022-07-01T00:31:17;12.80;99.90
16321;DHT22;8269;50.990;4.494;2022-07-01T00:33:43;12.80;99.90
16321;DHT22;8269;50.990;4.494;2022-07-01T00:36:08;12.90;99.90
16321;DHT22;8269;50.990;4.494;2022-07-01T00:38:34;12.80;99.90
16321;DHT22;8269;50.990;4.494;2022-07-01T00:41:00;12.80;99.90
16321;DHT22;8269;50.990;4.494;2022-07-01T00:43:26;12.70;99.90
16321;DHT22;8269;50.990;4.494;2022-07-01T00:45:52;12.70;99.90
16321;DHT22;8269;50.990;4.494;2022-07-01T00:48:21;12.70;99.90
16321;DHT22;8269;50.990;4.494;2022-07-01T00:50:48;12.70;99.90
16321;DHT22;8269;50.990;4.494;2022-07-01T00:53:14;12.70;99.90
16321;DHT22;8269;50.990;4.494;2022-07-01T00:55:41;12.80;99.90
16321;DHT22;8269;50.990;4.494;2022-07-01T00:58:08;12.80;99.90
16321;DHT22;8269;50.990;4.494;2022-07-01T01:00:36;12.80;99.90
16321;DHT22;8269;50.990;4.494;2022-07-01T01:03:02;12.70;99.90
16321;DHT22;8269;50.990;4.494;2022-07-01T01:05:27;12.70;99.90
16321;DHT22;8269;50.990;4.494;2022-07-01T01:07:53;12.70;99.90
16321;DHT22;8269;50.990;4.494;2022-07-01T01:10:19;12.70;99.90
16321;DHT22;8269;50.990;4.494;2022-07-01T01:12:45;12.70;99.90
16321;DHT22;8269;50.990;4.494;2022-07-01T01:15:17;12.70;99.90
16321;DHT22;8269;50.990;4.494;2022-07-01T01:17:43;12.70;99.90
16321;DHT22;8269;50.990;4.494;2022-07-01T01:20:17;12.60;99.90
16321;DHT22;8269;50.990;4.494;2022-07-01T01:22:44;12.60;99.90
16321;DHT22;8269;50.990;4.494;2022-07-01T01:25:10;12.70;99.90
16321;DHT22;8269;50.990;4.494;2022-07-01T01:27:36;12.70;99.90
16321;DHT22;8269;50.990;4.494;2022-07-01T01:30:07;12.70;99.90
16321;DHT22;8269;50.990;4.494;2022-07-01T01:32:33;12.80;99.90
16321;DHT22;8269;50.990;4.494;2022-07-01T01:34:59;12.80;99.90
16321;DHT22;8269;50.990;4.494;2022-07-01T01:37:25;12.90;99.90
16321;DHT22;8269;50.990;4.494;2022-07-01T01:39:53;12.90;99.90
16321;DHT22;8269;50.990;4.494;2022-07-01T01:42:18;13.00;99.90
16321;DHT22;8269;50.990;4.494;2022-07-01T01:44:44;13.00;99.90
16321;DHT22;8269;50.990;4.494;2022-07-01T01:47:10;12.90;99.90
16321;DHT22;8269;50.990;4.494;2022-07-01T01:49:35;12.90;99.90
16321;DHT22;8269;50.990;4.494;2022-07-01T01:52:01;12.90;99.90
16321;DHT22;8269;50.990;4.494;2022-07-01T01:54:27;12.90;99.90
16321;DHT22;8269;50.990;4.494;2022-07-01T01:56:53;12.80;99.90
16321;DHT22;8269;50.990;4.494;2022-07-01T01:59:19;12.80;99.90
16321;DHT22;8269;50.990;4.494;2022-07-01T02:01:44;12.80;99.90
16321;DHT22;8269;50.990;4.494;2022-07-01T02:04:12;12.80;99.90
16321;DHT22;8269;50.990;4.494;2022-07-01T02:06:37;12.90;99.90
16321;DHT22;8269;50.990;4.494;2022-07-01T02:09:06;12.80;99.90
16321;DHT22;8269;50.990;4.494;2022-07-01T02:11:32;12.80;99.90
16321;DHT22;8269;50.990;4.494;2022-07-01T02:13:57;12.80;99.90
16321;DHT22;8269;50.990;4.494;2022-07-01T02:16:23;12.80;99.90
16321;DHT22;8269;50.990;4.494;2022-07-01T02:18:48;12.80;99.90
16321;DHT22;8269;50.990;4.494;2022-07-01T02:21:14;12.80;99.90
16321;DHT22;8269;50.990;4.494;2022-07-01T02:23:40;12.90;99.90
16321;DHT22;8269;50.990;4.494;2022-07-01T02:26:05;12.80;99.90
16321;DHT22;8269;50.990;4.494;2022-07-01T02:28:31;12.80;99.90
16321;DHT22;8269;50.990;4.494;2022-07-01T02:30:57;12.80;99.90
16321;DHT22;8269;50.990;4.494;2022-07-01T02:33:22;12.80;99.90
16321;DHT22;8269;50.990;4.494;2022-07-01T02:35:48;12.80;99.90
16321;DHT22;8269;50.990;4.494;2022-07-01T02:38:14;12.80;99.90
16321;DHT22;8269;50.990;4.494;2022-07-01T02:40:39;12.70;99.90
16321;DHT22;8269;50.990;4.494;2022-07-01T02:43:07;12.70;99.90
16321;DHT22;8269;50.990;4.494;2022-07-01T02:45:34;12.70;99.90
16321;DHT22;8269;50.990;4.494;2022-07-01T02:47:59;12.70;99.90
16321;DHT22;8269;50.990;4.494;2022-07-01T02:50:27;12.60;99.90
16321;DHT22;8269;50.990;4.494;2022-07-01T02:52:52;12.70;99.90
16321;DHT22;8269;50.990;4.494;2022-07-01T02:55:18;12.60;99.90
16321;DHT22;8269;50.990;4.494;2022-07-01T02:57:47;12.60;99.90
16321;DHT22;8269;50.990;4.494;2022-07-01T03:00:15;12.60;99.90
16321;DHT22;8269;50.990;4.494;2022-07-01T03:02:40;12.60;99.90
16321;DHT22;8269;50.990;4.494;2022-07-01T03:05:07;12.60;99.90
16321;DHT22;8269;50.990;4.494;2022-07-01T03:07:33;12.60;99.90
16321;DHT22;8269;50.990;4.494;2022-07-01T03:10:01;12.60;99.90
16321;DHT22;8269;50.990;4.494;2022-07-01T03:12:26;12.60;99.90
16321;DHT22;8269;50.990;4.494;2022-07-01T03:14:53;12.60;99.90
16321;DHT22;8269;50.990;4.494;2022-07-01T03:17:19;12.60;99.90
16321;DHT22;8269;50.990;4.494;2022-07-01T03:19:45;12.60;99.90
16321;DHT22;8269;50.990;4.494;2022-07-01T03:22:11;12.60;99.90
16321;DHT22;8269;50.990;4.494;2022-07-01T03:24:37;12.60;99.90
16321;DHT22;8269;50.990;4.494;2022-07-01T03:27:03;12.60;99.90
16321;DHT22;8269;50.990;4.494;2022-07-01T03:29:29;12.50;99.90
16321;DHT22;8269;50.990;4.494;2022-07-01T03:31:55;12.50;99.90
16321;DHT22;8269;50.990;4.494;2022-07-01T03:34:20;12.50;99.90
16321;DHT22;8269;50.990;4.494;2022-07-01T03:36:46;12.50;99.90
16321;DHT22;8269;50.990;4.494;2022-07-01T03:39:12;12.50;99.90
16321;DHT22;8269;50.990;4.494;2022-07-01T03:41:37;12.50;99.90
16321;DHT22;8269;50.990;4.494;2022-07-01T03:44:03;12.50;99.90
16321;DHT22;8269;50.990;4.494;2022-07-01T03:46:29;12.60;99.90
16321;DHT22;8269;50.990;4.494;2022-07-01T03:48:57;12.50;99.90
16321;DHT22;8269;50.990;4.494;2022-07-01T03:51:23;12.50;99.90
16321;DHT22;8269;50.990;4.494;2022-07-01T03:53:48;12.50;99.90
16321;DHT22;8269;50.990;4.494;2022-07-01T03:56:33;12.50;99.90
16321;DHT22;8269;50.990;4.494;2022-07-01T03:58:58;12.50;99.90
16321;DHT22;8269;50.990;4.494;2022-07-01T04:01:24;12.50;99.90
16321;DHT22;8269;50.990;4.494;2022-07-01T04:03:50;12.50;99.90
16321;DHT22;8269;50.990;4.494;2022-07-01T04:06:16;12.50;99.90
16321;DHT22;8269;50.990;4.494;2022-07-01T04:08:42;12.50;99.90
16321;DHT22;8269;50.990;4.494;2022-07-01T04:11:08;12.50;99.90
16321;DHT22;8269;50.990;4.494;2022-07-01T04:13:38;12.60;99.90
16321;DHT22;8269;50.990;4.494;2022-07-01T04:16:04;12.60;99.90
16321;DHT22;8269;50.990;4.494;2022-07-01T04:18:30;12.60;99.90
16321;DHT22;8269;50.990;4.494;2022-07-01T04:20:57;12.60;99.90
16321;DHT22;8269;50.990;4.494;2022-07-01T04:23:42;12.70;99.90
16321;DHT22;8269;50.990;4.494;2022-07-01T04:26:07;12.70;99.90
16321;DHT22;8269;50.990;4.494;2022-07-01T04:28:33;12.70;99.90
16321;DHT22;8269;50.990;4.494;2022-07-01T04:30:59;12.70;99.90
16321;DHT22;8269;50.990;4.494;2022-07-01T04:33:25;12.70;99.90
16321;DHT22;8269;50.990;4.494;2022-07-01T04:35:51;12.70;99.90
16321;DHT22;8269;50.990;4.494;2022-07-01T04:38:17;12.70;99.90
16321;DHT22;8269;50.990;4.494;2022-07-01T04:40:43;12.70;99.90
16321;DHT22;8269;50.990;4.494;2022-07-01T04:43:29;12.70;99.90
16321;DHT22;8269;50.990;4.494;2022-07-01T04:45:54;12.70;99.90
16321;DHT22;8269;50.990;4.494;2022-07-01T04:48:20;12.70;99.90
16321;DHT22;8269;50.990;4.494;2022-07-01T04:50:46;12.70;99.90
16321;DHT22;8269;50.990;4.494;2022-07-01T04:53:13;12.70;99.90
16321;DHT22;8269;50.990;4.494;2022-07-01T04:55:39;12.70;99.90
16321;DHT22;8269;50.990;4.494;2022-07-01T04:58:04;12.60;99.90
16321;DHT22;8269;50.990;4.494;2022-07-01T05:00:30;12.60;99.90
16321;DHT22;8269;50.990;4.494;2022-07-01T05:02:56;12.60;99.90
16321;DHT22;8269;50.990;4.494;2022-07-01T05:05:22;12.80;99.90
16321;DHT22;8269;50.990;4.494;2022-07-01T05:07:47;13.30;99.90
16321;DHT22;8269;50.990;4.494;2022-07-01T05:10:13;14.20;99.90
16321;DHT22;8269;50.990;4.494;2022-07-01T05:12:39;15.10;99.90
16321;DHT22;8269;50.990;4.494;2022-07-01T05:15:05;15.60;99.90
16321;DHT22;8269;50.990;4.494;2022-07-01T05:17:32;16.00;99.90
16321;DHT22;8269;50.990;4.494;2022-07-01T05:20:16;16.30;99.90
16321;DHT22;8269;50.990;4.494;2022-07-01T05:23:01;17.10;99.90
16321;DHT22;8269;50.990;4.494;2022-07-01T05:25:26;17.60;99.40
16321;DHT22;8269;50.990;4.494;2022-07-01T05:27:52;17.80;98.00
16321;DHT22;8269;50.990;4.494;2022-07-01T05:30:20;18.00;97.10
16321;DHT22;8269;50.990;4.494;2022-07-01T05:32:45;17.90;97.20
16321;DHT22;8269;50.990;4.494;2022-07-01T05:35:11;17.50;96.40
16321;DHT22;8269;50.990;4.494;2022-07-01T05:37:37;16.80;97.30
16321;DHT22;8269;50.990;4.494;2022-07-01T05:40:03;16.70;99.50
16321;DHT22;8269;50.990;4.494;2022-07-01T05:42:28;16.80;99.10
16321;DHT22;8269;50.990;4.494;2022-07-01T05:44:54;17.30;98.50
16321;DHT22;8269;50.990;4.494;2022-07-01T05:47:19;17.60;96.50
16321;DHT22;8269;50.990;4.494;2022-07-01T05:49:45;17.80;95.50
16321;DHT22;8269;50.990;4.494;2022-07-01T05:52:10;17.90;96.20
16321;DHT22;8269;50.990;4.494;2022-07-01T05:54:36;18.00;94.50
16321;DHT22;8269;50.990;4.494;2022-07-01T05:57:02;18.80;93.70
16321;DHT22;8269;50.990;4.494;2022-07-01T05:59:28;18.70;92.60
16321;DHT22;8269;50.990;4.494;2022-07-01T06:01:53;18.60;92.30
16321;DHT22;8269;50.990;4.494;2022-07-01T06:04:19;19.00;92.10
16321;DHT22;8269;50.990;4.494;2022-07-01T06:06:44;18.80;91.20
16321;DHT22;8269;50.990;4.494;2022-07-01T06:09:10;19.00;92.40
16321;DHT22;8269;50.990;4.494;2022-07-01T06:11:36;19.20;90.80
16321;DHT22;8269;50.990;4.494;2022-07-01T06:14:01;19.20;89.90
16321;DHT22;8269;50.990;4.494;2022-07-01T06:16:27;19.20;88.60
16321;DHT22;8269;50.990;4.494;2022-07-01T06:18:53;19.20;88.70
16321;DHT22;8269;50.990;4.494;2022-07-01T06:21:18;19.60;88.80
16321;DHT22;8269;50.990;4.494;2022-07-01T06:23:44;19.90;85.20
16321;DHT22;8269;50.990;4.494;2022-07-01T06:28:37;20.90;80.50
16321;DHT22;8269;50.990;4.494;2022-07-01T06:31:03;20.60;81.90
16321;DHT22;8269;50.990;4.494;2022-07-01T06:33:28;20.50;79.00
16321;DHT22;8269;50.990;4.494;2022-07-01T06:35:56;20.40;79.60
16321;DHT22;8269;50.990;4.494;2022-07-01T06:38:22;20.20;79.10
16321;DHT22;8269;50.990;4.494;2022-07-01T06:40:48;20.00;80.80
16321;DHT22;8269;50.990;4.494;2022-07-01T06:43:33;20.20;80.80
16321;DHT22;8269;50.990;4.494;2022-07-01T06:46:00;20.40;79.90
16321;DHT22;8269;50.990;4.494;2022-07-01T06:48:26;20.20;78.10
16321;DHT22;8269;50.990;4.494;2022-07-01T06:50:52;20.50;77.80
16321;DHT22;8269;50.990;4.494;2022-07-01T06:53:18;20.80;75.60
16321;DHT22;8269;50.990;4.494;2022-07-01T06:55:43;20.90;76.20
16321;DHT22;8269;50.990;4.494;2022-07-01T06:58:09;21.10;75.80
16321;DHT22;8269;50.990;4.494;2022-07-01T07:00:36;20.60;74.90
16321;DHT22;8269;50.990;4.494;2022-07-01T07:03:02;20.70;76.30
16321;DHT22;8269;50.990;4.494;2022-07-01T07:05:27;21.00;75.20
16321;DHT22;8269;50.990;4.494;2022-07-01T07:07:56;20.90;75.00
16321;DHT22;8269;50.990;4.494;2022-07-01T07:10:22;20.60;75.40
16321;DHT22;8269;50.990;4.494;2022-07-01T07:12:48;21.00;75.20
16321;DHT22;8269;50.990;4.494;2022-07-01T07:15:13;20.90;74.70
16321;DHT22;8269;50.990;4.494;2022-07-01T07:17:39;21.00;74.70
16321;DHT22;8269;50.990;4.494;2022-07-01T07:20:05;20.70;74.10
16321;DHT22;8269;50.990;4.494;2022-07-01T07:22:31;21.50;74.60
16321;DHT22;8269;50.990;4.494;2022-07-01T07:24:56;22.00;72.30
16321;DHT22;8269;50.990;4.494;2022-07-01T07:27:22;22.10;71.80
16321;DHT22;8269;50.990;4.494;2022-07-01T07:29:48;22.30;69.90
16321;DHT22;8269;50.990;4.494;2022-07-01T07:32:14;22.10;69.50
16321;DHT22;8269;50.990;4.494;2022-07-01T07:34:39;22.10;68.50
16321;DHT22;8269;50.990;4.494;2022-07-01T07:37:05;21.70;68.10
16321;DHT22;8269;50.990;4.494;2022-07-01T07:39:31;21.10;69.90
16321;DHT22;8269;50.990;4.494;2022-07-01T07:41:57;21.40;71.30
16321;DHT22;8269;50.990;4.494;2022-07-01T07:44:23;21.70;69.80
16321;DHT22;8269;50.990;4.494;2022-07-01T07:46:49;21.60;69.60
16321;DHT22;8269;50.990;4.494;2022-07-01T07:49:15;21.30;67.60
16321;DHT22;8269;50.990;4.494;2022-07-01T07:51:40;21.30;69.70
16321;DHT22;8269;50.990;4.494;2022-07-01T07:54:06;21.80;70.10
16321;DHT22;8269;50.990;4.494;2022-07-01T07:56:32;22.20;69.30
16321;DHT22;8269;50.990;4.494;2022-07-01T07:58:58;21.60;67.00
16321;DHT22;8269;50.990;4.494;2022-07-01T08:01:24;21.50;69.10
16321;DHT22;8269;50.990;4.494;2022-07-01T08:03:50;21.50;67.70
16321;DHT22;8269;50.990;4.494;2022-07-01T08:06:15;21.00;68.20
16321;DHT22;8269;50.990;4.494;2022-07-01T08:08:41;21.10;69.70
16321;DHT22;8269;50.990;4.494;2022-07-01T08:11:07;21.40;68.50
16321;DHT22;8269;50.990;4.494;2022-07-01T08:13:33;21.30;67.40
16321;DHT22;8269;50.990;4.494;2022-07-01T08:15:59;20.80;67.00
16321;DHT22;8269;50.990;4.494;2022-07-01T08:18:25;19.70;69.20
16321;DHT22;8269;50.990;4.494;2022-07-01T08:20:50;19.80;71.90
16321;DHT22;8269;50.990;4.494;2022-07-01T08:23:21;20.50;71.60
16321;DHT22;8269;50.990;4.494;2022-07-01T08:25:48;21.10;70.00
16321;DHT22;8269;50.990;4.494;2022-07-01T08:28:14;21.10;67.30
16321;DHT22;8269;50.990;4.494;2022-07-01T08:30:40;20.40;68.00
16321;DHT22;8269;50.990;4.494;2022-07-01T08:33:06;20.30;69.70
16321;DHT22;8269;50.990;4.494;2022-07-01T08:35:31;20.30;70.30
16321;DHT22;8269;50.990;4.494;2022-07-01T08:37:57;20.90;68.50
16321;DHT22;8269;50.990;4.494;2022-07-01T08:40:27;20.90;68.20
16321;DHT22;8269;50.990;4.494;2022-07-01T08:43:02;20.90;67.70
16321;DHT22;8269;50.990;4.494;2022-07-01T08:45:34;20.60;68.20
16321;DHT22;8269;50.990;4.494;2022-07-01T08:48:02;20.70;69.60
16321;DHT22;8269;50.990;4.494;2022-07-01T08:50:39;21.30;67.90
16321;DHT22;8269;50.990;4.494;2022-07-01T08:53:05;21.60;66.90
16321;DHT22;8269;50.990;4.494;2022-07-01T08:55:31;21.80;64.00
16321;DHT22;8269;50.990;4.494;2022-07-01T08:57:58;21.80;64.90
16321;DHT22;8269;50.990;4.494;2022-07-01T09:00:30;21.80;63.70
16321;DHT22;8269;50.990;4.494;2022-07-01T09:03:03;21.60;64.60
16321;DHT22;8269;50.990;4.494;2022-07-01T09:05:30;21.50;63.30
16321;DHT22;8269;50.990;4.494;2022-07-01T09:08:02;21.60;65.50
16321;DHT22;8269;50.990;4.494;2022-07-01T09:10:29;21.50;65.10
16321;DHT22;8269;50.990;4.494;2022-07-01T09:13:07;21.90;65.50
16321;DHT22;8269;50.990;4.494;2022-07-01T09:15:33;22.10;64.90
16321;DHT22;8269;50.990;4.494;2022-07-01T09:18:12;21.60;64.80
16321;DHT22;8269;50.990;4.494;2022-07-01T09:20:40;21.60;66.00
16321;DHT22;8269;50.990;4.494;2022-07-01T09:23:10;21.80;64.90
16321;DHT22;8269;50.990;4.494;2022-07-01T09:25:41;22.10;62.00
16321;DHT22;8269;50.990;4.494;2022-07-01T09:28:15;22.00;60.90
16321;DHT22;8269;50.990;4.494;2022-07-01T09:30:43;22.00;62.30
16321;DHT22;8269;50.990;4.494;2022-07-01T09:33:23;22.20;62.70
16321;DHT22;8269;50.990;4.494;2022-07-01T09:35:50;21.90;63.00
16321;DHT22;8269;50.990;4.494;2022-07-01T09:38:20;21.40;62.30
16321;DHT22;8269;50.990;4.494;2022-07-01T09:40:56;21.40;62.40
16321;DHT22;8269;50.990;4.494;2022-07-01T09:43:23;22.10;63.60
16321;DHT22;8269;50.990;4.494;2022-07-01T09:45:57;22.40;59.30
16321;DHT22;8269;50.990;4.494;2022-07-01T09:51:00;22.10;58.80
16321;DHT22;8269;50.990;4.494;2022-07-01T09:53:26;21.50;60.80
16321;DHT22;8269;50.990;4.494;2022-07-01T09:55:52;21.40;61.40
16321;DHT22;8269;50.990;4.494;2022-07-01T09:58:18;21.50;63.50
16321;DHT22;8269;50.990;4.494;2022-07-01T10:00:44;21.60;62.00
16321;DHT22;8269;50.990;4.494;2022-07-01T10:03:11;21.50;61.20
16321;DHT22;8269;50.990;4.494;2022-07-01T10:05:41;21.70;62.60
16321;DHT22;8269;50.990;4.494;2022-07-01T10:13:53;21.40;59.50
16321;DHT22;8269;50.990;4.494;2022-07-01T10:16:20;21.60;61.00
16321;DHT22;8269;50.990;4.494;2022-07-01T10:18:46;21.90;60.30
16321;DHT22;8269;50.990;4.494;2022-07-01T10:21:26;21.90;58.80
16321;DHT22;8269;50.990;4.494;2022-07-01T10:23:53;21.20;59.70
16321;DHT22;8269;50.990;4.494;2022-07-01T10:26:35;20.90;60.90
16321;DHT22;8269;50.990;4.494;2022-07-01T10:29:02;20.60;61.40
16321;DHT22;8269;50.990;4.494;2022-07-01T10:31:38;20.50;62.50
16321;DHT22;8269;50.990;4.494;2022-07-01T10:34:04;20.40;62.30
16321;DHT22;8269;50.990;4.494;2022-07-01T10:36:32;20.30;62.70
16321;DHT22;8269;50.990;4.494;2022-07-01T10:41:30;20.60;63.20
16321;DHT22;8269;50.990;4.494;2022-07-01T10:43:56;20.90;62.70
16321;DHT22;8269;50.990;4.494;2022-07-01T10:46:43;21.30;62.50
16321;DHT22;8269;50.990;4.494;2022-07-01T10:49:14;21.20;58.00
16321;DHT22;8269;50.990;4.494;2022-07-01T10:51:46;21.20;59.60
16321;DHT22;8269;50.990;4.494;2022-07-01T10:54:16;21.10;59.30
16321;DHT22;8269;50.990;4.494;2022-07-01T10:57:19;20.80;59.10
16321;DHT22;8269;50.990;4.494;2022-07-01T11:02:39;21.30;57.90
16321;DHT22;8269;50.990;4.494;2022-07-01T11:05:11;21.30;57.40
16321;DHT22;8269;50.990;4.494;2022-07-01T11:07:43;21.40;57.60
16321;DHT22;8269;50.990;4.494;2022-07-01T11:10:11;21.60;58.50
16321;DHT22;8269;50.990;4.494;2022-07-01T11:12:38;21.80;56.30
16321;DHT22;8269;50.990;4.494;2022-07-01T11:15:06;21.70;54.80
16321;DHT22;8269;50.990;4.494;2022-07-01T11:17:32;21.60;54.80
16321;DHT22;8269;50.990;4.494;2022-07-01T11:19:59;21.80;56.20
16321;DHT22;8269;50.990;4.494;2022-07-01T11:22:29;22.00;56.30
16321;DHT22;8269;50.990;4.494;2022-07-01T11:25:01;22.20;56.30
16321;DHT22;8269;50.990;4.494;2022-07-01T11:27:27;22.00;53.60
16321;DHT22;8269;50.990;4.494;2022-07-01T11:29:55;21.80;52.10
16321;DHT22;8269;50.990;4.494;2022-07-01T11:32:29;21.70;53.80
16321;DHT22;8269;50.990;4.494;2022-07-01T11:34:55;21.80;55.90
16321;DHT22;8269;50.990;4.494;2022-07-01T11:37:22;22.00;57.60
16321;DHT22;8269;50.990;4.494;2022-07-01T11:40:08;22.30;54.70
16321;DHT22;8269;50.990;4.494;2022-07-01T11:42:34;22.60;55.40
16321;DHT22;8269;50.990;4.494;2022-07-01T11:45:01;22.70;53.00
16321;DHT22;8269;50.990;4.494;2022-07-01T11:47:27;22.70;52.30
16321;DHT22;8269;50.990;4.494;2022-07-01T11:49:53;22.70;53.50
16321;DHT22;8269;50.990;4.494;2022-07-01T11:52:20;22.40;53.90
16321;DHT22;8269;50.990;4.494;2022-07-01T11:54:56;22.40;53.70
16321;DHT22;8269;50.990;4.494;2022-07-01T11:57:25;22.40;51.00
16321;DHT22;8269;50.990;4.494;2022-07-01T11:59:55;22.40;49.90
16321;DHT22;8269;50.990;4.494;2022-07-01T12:02:22;22.40;51.70
16321;DHT22;8269;50.990;4.494;2022-07-01T12:04:49;22.60;51.90
16321;DHT22;8269;50.990;4.494;2022-07-01T12:07:16;22.70;51.20
16321;DHT22;8269;50.990;4.494;2022-07-01T12:12:20;22.90;50.80
16321;DHT22;8269;50.990;4.494;2022-07-01T12:14:58;22.80;50.90
16321;DHT22;8269;50.990;4.494;2022-07-01T12:17:26;22.80;51.40
16321;DHT22;8269;50.990;4.494;2022-07-01T12:19:53;22.70;50.10
16321;DHT22;8269;50.990;4.494;2022-07-01T12:22:26;22.50;50.20
16321;DHT22;8269;50.990;4.494;2022-07-01T12:25:03;22.40;50.10
16321;DHT22;8269;50.990;4.494;2022-07-01T12:27:33;22.40;51.40
16321;DHT22;8269;50.990;4.494;2022-07-01T12:29:59;22.30;50.40
16321;DHT22;8269;50.990;4.494;2022-07-01T12:32:27;22.40;50.90
16321;DHT22;8269;50.990;4.494;2022-07-01T12:37:32;22.50;52.60
16321;DHT22;8269;50.990;4.494;2022-07-01T12:40:06;22.60;51.80
16321;DHT22;8269;50.990;4.494;2022-07-01T12:45:02;22.50;49.90
16321;DHT22;8269;50.990;4.494;2022-07-01T12:47:30;22.40;48.70
16321;DHT22;8269;50.990;4.494;2022-07-01T12:50:10;22.40;48.80
16321;DHT22;8269;50.990;4.494;2022-07-01T12:52:38;22.40;50.30
16321;DHT22;8269;50.990;4.494;2022-07-01T12:55:18;22.50;50.70
16321;DHT22;8269;50.990;4.494;2022-07-01T12:57:54;22.80;50.80
16321;DHT22;8269;50.990;4.494;2022-07-01T13:00:23;23.00;51.40
16321;DHT22;8269;50.990;4.494;2022-07-01T13:02:52;22.90;49.70
16321;DHT22;8269;50.990;4.494;2022-07-01T13:05:18;22.90;49.40
16321;DHT22;8269;50.990;4.494;2022-07-01T13:07:44;22.90;51.10
16321;DHT22;8269;50.990;4.494;2022-07-01T13:10:10;23.00;50.70
16321;DHT22;8269;50.990;4.494;2022-07-01T13:12:36;23.20;50.30
16321;DHT22;8269;50.990;4.494;2022-07-01T13:17:28;23.00;48.60
16321;DHT22;8269;50.990;4.494;2022-07-01T13:19:54;23.00;49.80
16321;DHT22;8269;50.990;4.494;2022-07-01T13:22:20;22.60;49.40
16321;DHT22;8269;50.990;4.494;2022-07-01T13:24:46;22.40;50.90
16321;DHT22;8269;50.990;4.494;2022-07-01T13:27:12;22.50;51.10
16321;DHT22;8269;50.990;4.494;2022-07-01T13:29:38;22.50;51.20
16321;DHT22;8269;50.990;4.494;2022-07-01T13:32:04;22.40;52.20
16321;DHT22;8269;50.990;4.494;2022-07-01T13:34:34;22.40;51.20
16321;DHT22;8269;50.990;4.494;2022-07-01T13:37:02;22.40;51.50
16321;DHT22;8269;50.990;4.494;2022-07-01T13:39:29;22.30;51.40
16321;DHT22;8269;50.990;4.494;2022-07-01T13:41:55;22.30;51.90
16321;DHT22;8269;50.990;4.494;2022-07-01T13:44:23;22.20;50.70
16321;DHT22;8269;50.990;4.494;2022-07-01T13:46:49;22.20;51.40
16321;DHT22;8269;50.990;4.494;2022-07-01T13:49:15;22.10;51.70
16321;DHT22;8269;50.990;4.494;2022-07-01T13:51:41;22.10;52.20
16321;DHT22;8269;50.990;4.494;2022-07-01T13:54:07;22.20;51.80
16321;DHT22;8269;50.990;4.494;2022-07-01T13:56:32;22.10;51.90
16321;DHT22;8269;50.990;4.494;2022-07-01T13:58:58;22.00;53.00
16321;DHT22;8269;50.990;4.494;2022-07-01T14:01:24;21.90;53.50
16321;DHT22;8269;50.990;4.494;2022-07-01T14:03:51;21.50;53.80
16321;DHT22;8269;50.990;4.494;2022-07-01T14:06:17;21.30;54.10
16321;DHT22;8269;50.990;4.494;2022-07-01T14:08:43;21.30;55.60
16321;DHT22;8269;50.990;4.494;2022-07-01T14:11:09;21.20;56.20
16321;DHT22;8269;50.990;4.494;2022-07-01T14:13:34;21.10;57.50
16321;DHT22;8269;50.990;4.494;2022-07-01T14:16:01;20.80;60.00
16321;DHT22;8269;50.990;4.494;2022-07-01T14:18:27;20.60;61.60
16321;DHT22;8269;50.990;4.494;2022-07-01T14:20:53;20.60;62.40
16321;DHT22;8269;50.990;4.494;2022-07-01T14:23:19;20.80;61.80
16321;DHT22;8269;50.990;4.494;2022-07-01T14:25:45;20.90;62.50
16321;DHT22;8269;50.990;4.494;2022-07-01T14:28:11;21.10;61.80
16321;DHT22;8269;50.990;4.494;2022-07-01T14:37:15;21.70;59.80
16321;DHT22;8269;50.990;4.494;2022-07-01T14:39:51;22.00;58.40
16321;DHT22;8269;50.990;4.494;2022-07-01T14:42:43;22.20;60.00
16321;DHT22;8269;50.990;4.494;2022-07-01T14:45:14;22.30;60.40
16321;DHT22;8269;50.990;4.494;2022-07-01T14:47:43;22.20;58.90
16321;DHT22;8269;50.990;4.494;2022-07-01T14:50:10;22.20;58.50
16321;DHT22;8269;50.990;4.494;2022-07-01T14:52:36;22.20;58.90
16321;DHT22;8269;50.990;4.494;2022-07-01T14:55:02;22.30;58.50
16321;DHT22;8269;50.990;4.494;2022-07-01T14:57:28;22.30;58.90
16321;DHT22;8269;50.990;4.494;2022-07-01T14:59:54;22.30;59.60
16321;DHT22;8269;50.990;4.494;2022-07-01T15:02:20;22.50;58.90
16321;DHT22;8269;50.990;4.494;2022-07-01T15:04:46;22.60;58.20
16321;DHT22;8269;50.990;4.494;2022-07-01T15:07:13;22.30;57.70
16321;DHT22;8269;50.990;4.494;2022-07-01T15:09:39;21.80;56.50
16321;DHT22;8269;50.990;4.494;2022-07-01T15:12:05;21.50;57.40
16321;DHT22;8269;50.990;4.494;2022-07-01T15:14:31;21.30;57.60
16321;DHT22;8269;50.990;4.494;2022-07-01T15:16:57;21.30;58.30
16321;DHT22;8269;50.990;4.494;2022-07-01T15:19:26;21.30;58.10
16321;DHT22;8269;50.990;4.494;2022-07-01T15:21:53;21.30;58.60
16321;DHT22;8269;50.990;4.494;2022-07-01T15:24:18;21.40;58.40
16321;DHT22;8269;50.990;4.494;2022-07-01T15:26:44;21.40;58.90
16321;DHT22;8269;50.990;4.494;2022-07-01T15:29:10;21.60;59.40
16321;DHT22;8269;50.990;4.494;2022-07-01T15:31:36;21.80;58.40
16321;DHT22;8269;50.990;4.494;2022-07-01T15:34:02;22.10;58.80
16321;DHT22;8269;50.990;4.494;2022-07-01T15:36:27;22.30;58.60
16321;DHT22;8269;50.990;4.494;2022-07-01T15:38:53;22.60;59.00
16321;DHT22;8269;50.990;4.494;2022-07-01T15:41:20;22.70;57.30
16321;DHT22;8269;50.990;4.494;2022-07-01T15:43:49;22.50;57.40
16321;DHT22;8269;50.990;4.494;2022-07-01T15:46:15;22.10;57.10
16321;DHT22;8269;50.990;4.494;2022-07-01T15:48:41;21.80;57.90
16321;DHT22;8269;50.990;4.494;2022-07-01T15:51:06;21.60;58.90
16321;DHT22;8269;50.990;4.494;2022-07-01T15:53:32;21.60;58.90
16321;DHT22;8269;50.990;4.494;2022-07-01T15:55:59;21.70;58.70
16321;DHT22;8269;50.990;4.494;2022-07-01T15:58:25;21.80;59.50
16321;DHT22;8269;50.990;4.494;2022-07-01T16:00:51;21.80;59.30
16321;DHT22;8269;50.990;4.494;2022-07-01T16:03:17;21.90;59.60
16321;DHT22;8269;50.990;4.494;2022-07-01T16:05:45;21.90;60.00
16321;DHT22;8269;50.990;4.494;2022-07-01T16:08:13;21.90;59.90
16321;DHT22;8269;50.990;4.494;2022-07-01T16:10:48;21.80;59.50
16321;DHT22;8269;50.990;4.494;2022-07-01T16:13:17;21.80;59.80
16321;DHT22;8269;50.990;4.494;2022-07-01T16:15:48;21.70;59.40
16321;DHT22;8269;50.990;4.494;2022-07-01T16:18:15;21.80;59.20
16321;DHT22;8269;50.990;4.494;2022-07-01T16:20:46;22.00;56.30